sensor_id;sensor_type;location;lat;lon;timestamp;pressure;altitude;pressure_sealevel;temperature;humidity
36138;BME280;22194;50.046;21.954;2022-08-21T00:02:03;98411.08;;;21.61;53.85
36138;BME280;22194;50.046;21.954;2022-08-21T00:04:31;98417.66;;;21.57;53.99
36138;BME280;22194;50.046;21.954;2022-08-21T00:06:59;98412.36;;;21.54;53.97
36138;BME280;22194;50.046;21.954;2022-08-21T00:09:27;98415.83;;;21.51;54.14
36138;BME280;22194;50.046;21.954;2022-08-21T00:11:55;98412.31;;;21.47;54.07
36138;BME280;22194;50.046;21.954;2022-08-21T00:14:24;98408.99;;;21.43;54.34
36138;BME280;22194;50.046;21.954;2022-08-21T00:16:58;98407.40;;;21.40;54.34
36138;BME280;22194;50.046;21.954;2022-08-21T00:19:27;98400.27;;;21.37;54.47
36138;BME280;22194;50.046;21.954;2022-08-21T00:21:56;98398.83;;;21.33;54.40
36138;BME280;22194;50.046;21.954;2022-08-21T00:24:26;98398.47;;;21.29;54.49
36138;BME280;22194;50.046;21.954;2022-08-21T00:26:54;98396.69;;;21.25;54.73
36138;BME280;22194;50.046;21.954;2022-08-21T00:29:23;98398.08;;;21.22;54.67
36138;BME280;22194;50.046;21.954;2022-08-21T00:31:52;98394.48;;;21.17;54.72
36138;BME280;22194;50.046;21.954;2022-08-21T00:34:21;98389.28;;;21.13;54.92
36138;BME280;22194;50.046;21.954;2022-08-21T00:36:49;98385.70;;;21.08;54.87
36138;BME280;22194;50.046;21.954;2022-08-21T00:39:18;98383.80;;;21.05;54.96
36138;BME280;22194;50.046;21.954;2022-08-21T00:41:46;98384.11;;;21.01;55.00
36138;BME280;22194;50.046;21.954;2022-08-21T00:44:16;98376.73;;;20.96;55.16
36138;BME280;22194;50.046;21.954;2022-08-21T00:46:45;98373.46;;;20.94;55.18
36138;BME280;22194;50.046;21.954;2022-08-21T00:49:14;98371.40;;;20.92;55.21
36138;BME280;22194;50.046;21.954;2022-08-21T00:51:50;98369.89;;;20.90;55.51
36138;BME280;22194;50.046;21.954;2022-08-21T00:54:22;98364.78;;;20.86;55.45
36138;BME280;22194;50.046;21.954;2022-08-21T00:56:54;98356.92;;;20.81;55.64
36138;BME280;22194;50.046;21.954;2022-08-21T00:59:28;98354.08;;;20.72;55.80
36138;BME280;22194;50.046;21.954;2022-08-21T01:01:58;98354.46;;;20.67;55.70
36138;BME280;22194;50.046;21.954;2022-08-21T01:04:26;98357.08;;;20.63;55.82
36138;BME280;22194;50.046;21.954;2022-08-21T01:06:55;98358.59;;;20.62;55.90
36138;BME280;22194;50.046;21.954;2022-08-21T01:09:23;98359.20;;;20.58;56.01
36138;BME280;22194;50.046;21.954;2022-08-21T01:11:51;98360.66;;;20.53;55.96
36138;BME280;22194;50.046;21.954;2022-08-21T01:14:20;98363.70;;;20.51;56.13
36138;BME280;22194;50.046;21.954;2022-08-21T01:16:51;98361.39;;;20.48;56.13
36138;BME280;22194;50.046;21.954;2022-08-21T01:19:22;98363.65;;;20.46;56.26
36138;BME280;22194;50.046;21.954;2022-08-21T01:21:52;98360.71;;;20.43;56.33
36138;BME280;22194;50.046;21.954;2022-08-21T01:24:22;98362.42;;;20.41;56.41
36138;BME280;22194;50.046;21.954;2022-08-21T01:26:51;98360.83;;;20.38;56.46
36138;BME280;22194;50.046;21.954;2022-08-21T01:29:39;98361.43;;;20.34;56.60
36138;BME280;22194;50.046;21.954;2022-08-21T01:32:14;98365.71;;;20.30;56.58
36138;BME280;22194;50.046;21.954;2022-08-21T01:34:45;98364.06;;;20.28;56.70
36138;BME280;22194;50.046;21.954;2022-08-21T01:37:16;98363.83;;;20.25;56.78
36138;BME280;22194;50.046;21.954;2022-08-21T01:39:45;98362.11;;;20.21;56.77
36138;BME280;22194;50.046;21.954;2022-08-21T01:42:14;98363.62;;;20.18;56.86
36138;BME280;22194;50.046;21.954;2022-08-21T01:44:42;98364.77;;;20.15;56.93
36138;BME280;22194;50.046;21.954;2022-08-21T01:47:14;98356.73;;;20.11;57.09
36138;BME280;22194;50.046;21.954;2022-08-21T01:49:45;98356.58;;;20.08;57.13
36138;BME280;22194;50.046;21.954;2022-08-21T01:52:13;98353.45;;;20.04;57.09
36138;BME280;22194;50.046;21.954;2022-08-21T01:54:42;98354.88;;;20.01;57.22
36138;BME280;22194;50.046;21.954;2022-08-21T01:57:12;98353.51;;;19.98;57.29
36138;BME280;22194;50.046;21.954;2022-08-21T01:59:42;98352.32;;;19.94;57.37
36138;BME280;22194;50.046;21.954;2022-08-21T02:02:09;98349.23;;;19.93;57.44
36138;BME280;22194;50.046;21.954;2022-08-21T02:04:38;98351.94;;;19.90;57.45
36138;BME280;22194;50.046;21.954;2022-08-21T02:07:07;98354.48;;;19.87;57.59
36138;BME280;22194;50.046;21.954;2022-08-21T02:09:37;98356.40;;;19.84;57.68
36138;BME280;22194;50.046;21.954;2022-08-21T02:12:07;98358.46;;;19.84;57.65
36138;BME280;22194;50.046;21.954;2022-08-21T02:14:36;98361.63;;;19.81;57.72
36138;BME280;22194;50.046;21.954;2022-08-21T02:17:05;98354.41;;;19.78;57.79
36138;BME280;22194;50.046;21.954;2022-08-21T02:19:37;98355.88;;;19.75;57.95
36138;BME280;22194;50.046;21.954;2022-08-21T02:22:10;98354.60;;;19.72;57.97
36138;BME280;22194;50.046;21.954;2022-08-21T02:24:39;98353.02;;;19.70;58.12
36138;BME280;22194;50.046;21.954;2022-08-21T02:27:24;98350.50;;;19.68;58.09
36138;BME280;22194;50.046;21.954;2022-08-21T02:29:56;98349.57;;;19.65;58.21
36138;BME280;22194;50.046;21.954;2022-08-21T02:32:25;98348.25;;;19.62;58.25
36138;BME280;22194;50.046;21.954;2022-08-21T02:34:54;98349.16;;;19.59;58.31
36138;BME280;22194;50.046;21.954;2022-08-21T02:37:24;98344.60;;;19.57;58.42
36138;BME280;22194;50.046;21.954;2022-08-21T02:39:52;98343.75;;;19.55;58.52
36138;BME280;22194;50.046;21.954;2022-08-21T02:42:20;98339.91;;;19.53;58.55
36138;BME280;22194;50.046;21.954;2022-08-21T02:44:49;98336.01;;;19.49;58.65
36138;BME280;22194;50.046;21.954;2022-08-21T02:47:18;98336.00;;;19.46;58.77
36138;BME280;22194;50.046;21.954;2022-08-21T02:49:46;98332.93;;;19.43;58.69
36138;BME280;22194;50.046;21.954;2022-08-21T02:52:15;98339.98;;;19.40;58.73
36138;BME280;22194;50.046;21.954;2022-08-21T02:54:43;98344.09;;;19.37;58.89
36138;BME280;22194;50.046;21.954;2022-08-21T02:57:11;98342.63;;;19.36;58.89
36138;BME280;22194;50.046;21.954;2022-08-21T02:59:40;98344.48;;;19.34;58.93
36138;BME280;22194;50.046;21.954;2022-08-21T03:02:08;98348.45;;;19.31;58.94
36138;BME280;22194;50.046;21.954;2022-08-21T03:04:37;98352.34;;;19.27;59.04
36138;BME280;22194;50.046;21.954;2022-08-21T03:07:10;98349.42;;;19.24;59.26
36138;BME280;22194;50.046;21.954;2022-08-21T03:09:38;98350.15;;;19.23;59.18
36138;BME280;22194;50.046;21.954;2022-08-21T03:12:23;98350.54;;;19.21;59.27
36138;BME280;22194;50.046;21.954;2022-08-21T03:14:57;98348.73;;;19.18;59.22
36138;BME280;22194;50.046;21.954;2022-08-21T03:17:25;98344.71;;;19.12;59.26
36138;BME280;22194;50.046;21.954;2022-08-21T03:19:57;98344.63;;;19.09;59.48
36138;BME280;22194;50.046;21.954;2022-08-21T03:22:26;98338.77;;;19.07;59.52
36138;BME280;22194;50.046;21.954;2022-08-21T03:24:59;98334.88;;;19.04;59.60
36138;BME280;22194;50.046;21.954;2022-08-21T03:27:34;98332.80;;;19.02;59.72
36138;BME280;22194;50.046;21.954;2022-08-21T03:30:07;98329.27;;;19.00;59.76
36138;BME280;22194;50.046;21.954;2022-08-21T03:32:35;98327.92;;;18.99;59.74
36138;BME280;22194;50.046;21.954;2022-08-21T03:35:05;98327.55;;;18.98;59.78
36138;BME280;22194;50.046;21.954;2022-08-21T03:37:34;98327.20;;;18.97;59.92
36138;BME280;22194;50.046;21.954;2022-08-21T03:40:06;98327.48;;;18.95;59.98
36138;BME280;22194;50.046;21.954;2022-08-21T03:42:35;98330.63;;;18.95;59.95
36138;BME280;22194;50.046;21.954;2022-08-21T03:45:04;98329.89;;;18.92;60.24
36138;BME280;22194;50.046;21.954;2022-08-21T03:47:33;98328.86;;;18.92;60.22
36138;BME280;22194;50.046;21.954;2022-08-21T03:50:03;98328.59;;;18.91;60.19
36138;BME280;22194;50.046;21.954;2022-08-21T03:52:32;98326.84;;;18.90;60.29
36138;BME280;22194;50.046;21.954;2022-08-21T03:54:59;98325.16;;;18.89;60.41
36138;BME280;22194;50.046;21.954;2022-08-21T03:57:27;98325.21;;;18.89;60.42
36138;BME280;22194;50.046;21.954;2022-08-21T03:59:55;98323.44;;;18.90;60.39
36138;BME280;22194;50.046;21.954;2022-08-21T04:02:23;98327.38;;;18.89;60.57
36138;BME280;22194;50.046;21.954;2022-08-21T04:04:51;98326.90;;;18.88;60.63
36138;BME280;22194;50.046;21.954;2022-08-21T04:07:19;98328.21;;;18.88;60.65
36138;BME280;22194;50.046;21.954;2022-08-21T04:09:47;98331.69;;;18.87;60.71
36138;BME280;22194;50.046;21.954;2022-08-21T04:12:14;98334.03;;;18.87;60.78
36138;BME280;22194;50.046;21.954;2022-08-21T04:14:42;98331.70;;;18.87;60.84
36138;BME280;22194;50.046;21.954;2022-08-21T04:17:10;98338.56;;;18.87;60.89
36138;BME280;22194;50.046;21.954;2022-08-21T04:19:38;98341.63;;;18.87;60.91
36138;BME280;22194;50.046;21.954;2022-08-21T04:22:06;98346.91;;;18.87;60.95
36138;BME280;22194;50.046;21.954;2022-08-21T04:24:34;98352.02;;;18.88;60.97
36138;BME280;22194;50.046;21.954;2022-08-21T04:27:02;98349.22;;;18.89;61.09
36138;BME280;22194;50.046;21.954;2022-08-21T04:29:30;98349.70;;;18.91;61.29
36138;BME280;22194;50.046;21.954;2022-08-21T04:32:01;98346.48;;;18.93;61.18
36138;BME280;22194;50.046;21.954;2022-08-21T04:34:29;98346.23;;;18.95;61.30
36138;BME280;22194;50.046;21.954;2022-08-21T04:36:56;98349.33;;;18.98;61.35
36138;BME280;22194;50.046;21.954;2022-08-21T04:39:25;98351.60;;;19.00;61.39
36138;BME280;22194;50.046;21.954;2022-08-21T04:41:56;98348.92;;;19.01;61.42
36138;BME280;22194;50.046;21.954;2022-08-21T04:44:24;98351.23;;;19.03;61.54
36138;BME280;22194;50.046;21.954;2022-08-21T04:46:52;98350.81;;;19.05;61.46
36138;BME280;22194;50.046;21.954;2022-08-21T04:49:20;98354.30;;;19.08;61.58
36138;BME280;22194;50.046;21.954;2022-08-21T04:51:49;98353.26;;;19.10;61.63
36138;BME280;22194;50.046;21.954;2022-08-21T04:54:20;98359.00;;;19.15;61.68
36138;BME280;22194;50.046;21.954;2022-08-21T04:56:53;98356.67;;;19.17;61.75
36138;BME280;22194;50.046;21.954;2022-08-21T04:59:28;98356.65;;;19.21;61.85
36138;BME280;22194;50.046;21.954;2022-08-21T05:02:00;98356.95;;;19.25;61.84
36138;BME280;22194;50.046;21.954;2022-08-21T05:04:32;98360.04;;;19.29;62.01
36138;BME280;22194;50.046;21.954;2022-08-21T05:07:04;98369.98;;;19.34;61.99
36138;BME280;22194;50.046;21.954;2022-08-21T05:09:34;98374.99;;;19.38;61.98
36138;BME280;22194;50.046;21.954;2022-08-21T05:12:04;98373.92;;;19.40;62.07
36138;BME280;22194;50.046;21.954;2022-08-21T05:14:33;98368.59;;;19.44;62.04
36138;BME280;22194;50.046;21.954;2022-08-21T05:17:01;98370.39;;;19.49;62.09
36138;BME280;22194;50.046;21.954;2022-08-21T05:19:28;98367.61;;;19.54;62.09
36138;BME280;22194;50.046;21.954;2022-08-21T05:21:56;98372.56;;;19.59;62.17
36138;BME280;22194;50.046;21.954;2022-08-21T05:24:25;98370.48;;;19.65;62.26
36138;BME280;22194;50.046;21.954;2022-08-21T05:26:53;98366.23;;;19.70;62.21
36138;BME280;22194;50.046;21.954;2022-08-21T05:29:21;98369.04;;;19.75;62.34
36138;BME280;22194;50.046;21.954;2022-08-21T05:31:50;98369.92;;;19.81;62.32
36138;BME280;22194;50.046;21.954;2022-08-21T05:34:22;98366.96;;;19.86;62.41
36138;BME280;22194;50.046;21.954;2022-08-21T05:36:51;98365.92;;;19.90;62.40
36138;BME280;22194;50.046;21.954;2022-08-21T05:39:19;98367.29;;;19.96;62.42
36138;BME280;22194;50.046;21.954;2022-08-21T05:41:46;98362.17;;;20.00;62.48
36138;BME280;22194;50.046;21.954;2022-08-21T05:44:15;98359.25;;;20.05;62.41
36138;BME280;22194;50.046;21.954;2022-08-21T05:46:43;98362.24;;;20.10;62.50
36138;BME280;22194;50.046;21.954;2022-08-21T05:49:12;98362.08;;;20.16;62.41
36138;BME280;22194;50.046;21.954;2022-08-21T05:51:41;98363.36;;;20.21;62.50
36138;BME280;22194;50.046;21.954;2022-08-21T05:54:10;98363.77;;;20.27;62.52
36138;BME280;22194;50.046;21.954;2022-08-21T05:56:38;98368.34;;;20.32;62.58
36138;BME280;22194;50.046;21.954;2022-08-21T05:59:06;98363.29;;;20.38;62.54
36138;BME280;22194;50.046;21.954;2022-08-21T06:01:35;98362.05;;;20.44;62.61
36138;BME280;22194;50.046;21.954;2022-08-21T06:04:04;98360.67;;;20.50;62.47
36138;BME280;22194;50.046;21.954;2022-08-21T06:06:33;98358.65;;;20.57;62.62
36138;BME280;22194;50.046;21.954;2022-08-21T06:09:03;98356.96;;;20.64;62.72
36138;BME280;22194;50.046;21.954;2022-08-21T06:11:32;98358.10;;;20.71;62.66
36138;BME280;22194;50.046;21.954;2022-08-21T06:14:00;98358.14;;;20.78;62.73
36138;BME280;22194;50.046;21.954;2022-08-21T06:16:29;98359.61;;;20.85;62.55
36138;BME280;22194;50.046;21.954;2022-08-21T06:18:57;98360.55;;;20.92;62.72
36138;BME280;22194;50.046;21.954;2022-08-21T06:21:30;98358.56;;;20.99;62.66
36138;BME280;22194;50.046;21.954;2022-08-21T06:23:57;98354.62;;;21.06;62.54
36138;BME280;22194;50.046;21.954;2022-08-21T06:26:26;98356.21;;;21.14;62.74
36138;BME280;22194;50.046;21.954;2022-08-21T06:28:58;98353.17;;;21.20;62.49
36138;BME280;22194;50.046;21.954;2022-08-21T06:31:27;98351.73;;;21.24;62.79
36138;BME280;22194;50.046;21.954;2022-08-21T06:33:56;98353.36;;;21.30;62.58
36138;BME280;22194;50.046;21.954;2022-08-21T06:36:25;98352.54;;;21.36;62.71
36138;BME280;22194;50.046;21.954;2022-08-21T06:38:53;98351.41;;;21.46;62.68
36138;BME280;22194;50.046;21.954;2022-08-21T06:41:25;98355.33;;;21.54;62.62
36138;BME280;22194;50.046;21.954;2022-08-21T06:43:56;98353.15;;;21.63;62.75
36138;BME280;22194;50.046;21.954;2022-08-21T06:46:27;98356.73;;;21.71;62.50
36138;BME280;22194;50.046;21.954;2022-08-21T06:48:57;98357.02;;;21.80;62.67
36138;BME280;22194;50.046;21.954;2022-08-21T06:51:27;98356.92;;;21.90;62.53
36138;BME280;22194;50.046;21.954;2022-08-21T06:53:57;98356.02;;;21.99;62.61
36138;BME280;22194;50.046;21.954;2022-08-21T06:56:26;98353.11;;;22.07;62.55
36138;BME280;22194;50.046;21.954;2022-08-21T06:58:54;98350.98;;;22.15;62.71
36138;BME280;22194;50.046;21.954;2022-08-21T07:01:26;98351.83;;;22.25;62.53
36138;BME280;22194;50.046;21.954;2022-08-21T07:03:55;98347.92;;;22.34;62.67
36138;BME280;22194;50.046;21.954;2022-08-21T07:06:23;98343.12;;;22.43;62.77
36138;BME280;22194;50.046;21.954;2022-08-21T07:08:52;98342.35;;;22.52;62.44
36138;BME280;22194;50.046;21.954;2022-08-21T07:11:26;98344.11;;;22.62;62.66
36138;BME280;22194;50.046;21.954;2022-08-21T07:13:53;98342.58;;;22.73;62.59
36138;BME280;22194;50.046;21.954;2022-08-21T07:16:24;98341.98;;;22.95;62.42
36138;BME280;22194;50.046;21.954;2022-08-21T07:18:52;98337.01;;;23.91;61.35
36138;BME280;22194;50.046;21.954;2022-08-21T07:21:20;98332.25;;;25.15;60.90
36138;BME280;22194;50.046;21.954;2022-08-21T07:23:53;98332.33;;;26.47;60.58
36138;BME280;22194;50.046;21.954;2022-08-21T07:26:23;98330.19;;;27.76;60.41
36138;BME280;22194;50.046;21.954;2022-08-21T07:28:53;98331.98;;;29.04;60.21
36138;BME280;22194;50.046;21.954;2022-08-21T07:31:24;98323.59;;;30.23;59.81
36138;BME280;22194;50.046;21.954;2022-08-21T07:33:53;98326.45;;;31.32;59.51
36138;BME280;22194;50.046;21.954;2022-08-21T07:36:22;98321.14;;;32.38;59.02
36138;BME280;22194;50.046;21.954;2022-08-21T07:38:51;98320.34;;;33.48;58.69
36138;BME280;22194;50.046;21.954;2022-08-21T07:41:25;98317.30;;;34.41;58.22
36138;BME280;22194;50.046;21.954;2022-08-21T07:43:59;98317.97;;;35.30;57.82
36138;BME280;22194;50.046;21.954;2022-08-21T07:46:27;98324.73;;;36.15;57.50
36138;BME280;22194;50.046;21.954;2022-08-21T07:48:56;98319.92;;;36.96;56.89
36138;BME280;22194;50.046;21.954;2022-08-21T07:51:28;98314.39;;;37.69;56.10
36138;BME280;22194;50.046;21.954;2022-08-21T07:53:57;98312.52;;;38.33;55.48
36138;BME280;22194;50.046;21.954;2022-08-21T07:56:30;98313.30;;;38.95;54.80
36138;BME280;22194;50.046;21.954;2022-08-21T07:58:59;98318.08;;;39.56;54.22
36138;BME280;22194;50.046;21.954;2022-08-21T08:01:27;98316.13;;;40.14;53.66
36138;BME280;22194;50.046;21.954;2022-08-21T08:03:55;98313.64;;;40.68;52.93
36138;BME280;22194;50.046;21.954;2022-08-21T08:06:24;98314.38;;;41.15;52.00
36138;BME280;22194;50.046;21.954;2022-08-21T08:08:53;98312.36;;;41.53;51.12
36138;BME280;22194;50.046;21.954;2022-08-21T08:11:22;98307.41;;;41.87;50.43
36138;BME280;22194;50.046;21.954;2022-08-21T08:13:52;98309.55;;;42.22;49.82
36138;BME280;22194;50.046;21.954;2022-08-21T08:16:19;98305.34;;;42.42;48.88
36138;BME280;22194;50.046;21.954;2022-08-21T08:18:48;98301.18;;;42.54;48.03
36138;BME280;22194;50.046;21.954;2022-08-21T08:21:18;98299.83;;;42.54;47.33
36138;BME280;22194;50.046;21.954;2022-08-21T08:23:49;98300.70;;;42.59;47.11
36138;BME280;22194;50.046;21.954;2022-08-21T08:26:17;98302.05;;;42.50;45.93
36138;BME280;22194;50.046;21.954;2022-08-21T08:28:46;98297.20;;;42.61;45.44
36138;BME280;22194;50.046;21.954;2022-08-21T08:31:15;98292.07;;;42.70;44.53
36138;BME280;22194;50.046;21.954;2022-08-21T08:33:43;98289.34;;;42.70;44.27
36138;BME280;22194;50.046;21.954;2022-08-21T08:36:14;98287.23;;;42.58;43.45
36138;BME280;22194;50.046;21.954;2022-08-21T08:38:43;98289.20;;;42.54;42.67
36138;BME280;22194;50.046;21.954;2022-08-21T08:41:12;98285.98;;;42.58;42.27
36138;BME280;22194;50.046;21.954;2022-08-21T08:43:50;98286.28;;;42.63;41.65
36138;BME280;22194;50.046;21.954;2022-08-21T08:46:44;98287.70;;;42.60;40.94
36138;BME280;22194;50.046;21.954;2022-08-21T08:49:31;98286.47;;;42.59;40.50
36138;BME280;22194;50.046;21.954;2022-08-21T08:52:27;98281.88;;;42.67;39.92
36138;BME280;22194;50.046;21.954;2022-08-21T08:55:18;98285.26;;;42.74;39.39
36138;BME280;22194;50.046;21.954;2022-08-21T08:57:56;98283.47;;;42.62;38.95
36138;BME280;22194;50.046;21.954;2022-08-21T09:00:25;98285.05;;;42.48;38.72
36138;BME280;22194;50.046;21.954;2022-08-21T09:02:56;98282.15;;;42.26;38.46
36138;BME280;22194;50.046;21.954;2022-08-21T09:05:42;98282.60;;;41.77;37.96
36138;BME280;22194;50.046;21.954;2022-08-21T09:19:32;98280.92;;;39.72;36.41
36138;BME280;22194;50.046;21.954;2022-08-21T09:22:10;98275.99;;;39.60;36.06
36138;BME280;22194;50.046;21.954;2022-08-21T09:27:39;98278.59;;;39.45;35.72
36138;BME280;22194;50.046;21.954;2022-08-21T09:30:09;98275.02;;;39.50;35.54
36138;BME280;22194;50.046;21.954;2022-08-21T09:32:39;98276.92;;;39.55;35.57
36138;BME280;22194;50.046;21.954;2022-08-21T09:35:12;98274.86;;;39.66;35.29
36138;BME280;22194;50.046;21.954;2022-08-21T09:37:57;98273.35;;;39.73;35.26
36138;BME280;22194;50.046;21.954;2022-08-21T09:45:43;98265.17;;;39.34;34.47
36138;BME280;22194;50.046;21.954;2022-08-21T09:48:14;98260.19;;;39.23;34.65
36138;BME280;22194;50.046;21.954;2022-08-21T09:50:43;98256.37;;;39.10;34.53
36138;BME280;22194;50.046;21.954;2022-08-21T09:53:24;98255.14;;;38.83;34.25
36138;BME280;22194;50.046;21.954;2022-08-21T09:56:02;98250.02;;;38.46;34.16
36138;BME280;22194;50.046;21.954;2022-08-21T09:58:51;98252.92;;;37.99;34.40
36138;BME280;22194;50.046;21.954;2022-08-21T10:01:22;98245.45;;;37.62;34.22
36138;BME280;22194;50.046;21.954;2022-08-21T10:04:05;98243.85;;;37.24;34.08
36138;BME280;22194;50.046;21.954;2022-08-21T10:06:35;98246.20;;;36.75;33.94
36138;BME280;22194;50.046;21.954;2022-08-21T10:11:33;98244.02;;;36.05;34.01
36138;BME280;22194;50.046;21.954;2022-08-21T10:14:13;98241.36;;;35.85;34.04
36138;BME280;22194;50.046;21.954;2022-08-21T10:17:09;98246.64;;;35.60;34.08
36138;BME280;22194;50.046;21.954;2022-08-21T10:20:08;98245.55;;;35.39;34.15
36138;BME280;22194;50.046;21.954;2022-08-21T10:23:02;98243.71;;;35.13;33.97
36138;BME280;22194;50.046;21.954;2022-08-21T10:25:37;98241.70;;;34.87;34.11
36138;BME280;22194;50.046;21.954;2022-08-21T10:28:39;98243.88;;;34.56;34.03
36138;BME280;22194;50.046;21.954;2022-08-21T10:31:35;98241.89;;;34.34;34.28
36138;BME280;22194;50.046;21.954;2022-08-21T10:39:34;98238.99;;;34.08;34.39
36138;BME280;22194;50.046;21.954;2022-08-21T10:42:24;98241.07;;;33.94;34.09
36138;BME280;22194;50.046;21.954;2022-08-21T10:45:15;98239.83;;;33.88;34.40
36138;BME280;22194;50.046;21.954;2022-08-21T10:47:54;98235.28;;;33.83;34.73
36138;BME280;22194;50.046;21.954;2022-08-21T10:50:39;98237.00;;;33.81;34.55
36138;BME280;22194;50.046;21.954;2022-08-21T10:56:23;98239.08;;;33.55;34.76
36138;BME280;22194;50.046;21.954;2022-08-21T10:59:14;98239.19;;;33.44;34.49
36138;BME280;22194;50.046;21.954;2022-08-21T11:01:58;98239.38;;;33.40;34.81
36138;BME280;22194;50.046;21.954;2022-08-21T11:04:41;98235.01;;;33.36;34.52
36138;BME280;22194;50.046;21.954;2022-08-21T11:10:04;98230.48;;;33.34;34.67
36138;BME280;22194;50.046;21.954;2022-08-21T11:12:41;98228.09;;;33.28;34.59
36138;BME280;22194;50.046;21.954;2022-08-21T11:15:43;98223.45;;;33.20;34.34
36138;BME280;22194;50.046;21.954;2022-08-21T11:18:30;98221.17;;;33.10;34.69
36138;BME280;22194;50.046;21.954;2022-08-21T11:26:33;98212.67;;;32.98;34.79
36138;BME280;22194;50.046;21.954;2022-08-21T11:29:11;98212.95;;;32.97;34.89
36138;BME280;22194;50.046;21.954;2022-08-21T11:40:52;98208.23;;;32.80;34.96
36138;BME280;22194;50.046;21.954;2022-08-21T11:46:20;98210.60;;;32.84;35.18
36138;BME280;22194;50.046;21.954;2022-08-21T11:51:39;98214.84;;;32.86;35.12
36138;BME280;22194;50.046;21.954;2022-08-21T11:54:31;98216.11;;;32.88;34.96
36138;BME280;22194;50.046;21.954;2022-08-21T11:57:07;98208.62;;;32.86;35.23
36138;BME280;22194;50.046;21.954;2022-08-21T11:59:43;98211.04;;;32.79;34.81
36138;BME280;22194;50.046;21.954;2022-08-21T12:02:15;98209.70;;;32.54;34.99
36138;BME280;22194;50.046;21.954;2022-08-21T12:04:53;98204.87;;;32.25;34.84
36138;BME280;22194;50.046;21.954;2022-08-21T12:10:07;98204.11;;;31.81;35.03
36138;BME280;22194;50.046;21.954;2022-08-21T12:12:38;98199.95;;;31.52;35.03
36138;BME280;22194;50.046;21.954;2022-08-21T12:15:15;98198.61;;;31.28;34.97
36138;BME280;22194;50.046;21.954;2022-08-21T12:18:05;98193.05;;;31.03;35.07
36138;BME280;22194;50.046;21.954;2022-08-21T12:20:39;98185.25;;;30.81;35.18
36138;BME280;22194;50.046;21.954;2022-08-21T12:23:25;98187.61;;;30.56;35.18
36138;BME280;22194;50.046;21.954;2022-08-21T12:26:10;98186.45;;;30.34;35.27
36138;BME280;22194;50.046;21.954;2022-08-21T12:28:41;98180.89;;;30.22;35.50
36138;BME280;22194;50.046;21.954;2022-08-21T12:31:24;98182.82;;;30.16;35.42
36138;BME280;22194;50.046;21.954;2022-08-21T12:34:01;98181.48;;;30.08;35.65
36138;BME280;22194;50.046;21.954;2022-08-21T12:36:52;98175.30;;;30.10;35.86
36138;BME280;22194;50.046;21.954;2022-08-21T12:39:26;98172.89;;;30.09;35.70
36138;BME280;22194;50.046;21.954;2022-08-21T12:42:20;98175.60;;;30.06;35.96
36138;BME280;22194;50.046;21.954;2022-08-21T12:44:58;98168.24;;;30.00;35.95
36138;BME280;22194;50.046;21.954;2022-08-21T12:47:43;98168.85;;;29.95;36.04
36138;BME280;22194;50.046;21.954;2022-08-21T12:50:19;98170.39;;;29.94;36.12
36138;BME280;22194;50.046;21.954;2022-08-21T12:52:57;98166.15;;;29.98;36.15
36138;BME280;22194;50.046;21.954;2022-08-21T12:55:31;98169.36;;;30.00;36.49
36138;BME280;22194;50.046;21.954;2022-08-21T12:58:01;98173.77;;;30.04;36.50
36138;BME280;22194;50.046;21.954;2022-08-21T13:00:30;98170.23;;;30.08;36.58
36138;BME280;22194;50.046;21.954;2022-08-21T13:03:00;98172.40;;;30.09;36.68
36138;BME280;22194;50.046;21.954;2022-08-21T13:05:35;98170.98;;;30.04;36.74
36138;BME280;22194;50.046;21.954;2022-08-21T13:08:06;98178.11;;;30.00;36.68
36138;BME280;22194;50.046;21.954;2022-08-21T13:10:36;98176.51;;;29.93;36.98
36138;BME280;22194;50.046;21.954;2022-08-21T13:13:11;98177.11;;;29.87;37.03
36138;BME280;22194;50.046;21.954;2022-08-21T13:15:58;98174.94;;;29.79;37.10
36138;BME280;22194;50.046;21.954;2022-08-21T13:18:30;98171.98;;;29.72;37.13
36138;BME280;22194;50.046;21.954;2022-08-21T13:21:09;98169.00;;;29.64;37.21
36138;BME280;22194;50.046;21.954;2022-08-21T13:23:40;98167.73;;;29.57;37.47
36138;BME280;22194;50.046;21.954;2022-08-21T13:26:17;98170.44;;;29.54;37.55
36138;BME280;22194;50.046;21.954;2022-08-21T13:28:48;98169.83;;;29.52;37.70
36138;BME280;22194;50.046;21.954;2022-08-21T13:31:22;98168.52;;;29.49;37.53
36138;BME280;22194;50.046;21.954;2022-08-21T13:33:54;98173.16;;;29.42;37.79
36138;BME280;22194;50.046;21.954;2022-08-21T13:36:36;98173.54;;;29.35;37.94
36138;BME280;22194;50.046;21.954;2022-08-21T13:39:08;98179.25;;;29.31;38.03
36138;BME280;22194;50.046;21.954;2022-08-21T13:41:40;98185.86;;;29.25;38.10
36138;BME280;22194;50.046;21.954;2022-08-21T13:44:19;98187.30;;;29.22;38.33
36138;BME280;22194;50.046;21.954;2022-08-21T13:46:48;98193.71;;;29.19;38.22
36138;BME280;22194;50.046;21.954;2022-08-21T13:49:24;98198.23;;;29.15;38.58
36138;BME280;22194;50.046;21.954;2022-08-21T13:51:56;98200.32;;;29.11;38.40
36138;BME280;22194;50.046;21.954;2022-08-21T13:54:28;98199.55;;;29.06;38.63
36138;BME280;22194;50.046;21.954;2022-08-21T13:56:57;98199.14;;;29.05;38.74
36138;BME280;22194;50.046;21.954;2022-08-21T13:59:35;98199.20;;;29.01;38.78
36138;BME280;22194;50.046;21.954;2022-08-21T14:02:12;98201.34;;;28.98;38.99
36138;BME280;22194;50.046;21.954;2022-08-21T14:04:54;98206.54;;;28.94;39.08
36138;BME280;22194;50.046;21.954;2022-08-21T14:07:34;98204.89;;;28.88;39.33
36138;BME280;22194;50.046;21.954;2022-08-21T14:10:15;98210.80;;;28.85;39.22
36138;BME280;22194;50.046;21.954;2022-08-21T14:12:53;98211.98;;;28.82;39.13
36138;BME280;22194;50.046;21.954;2022-08-21T14:15:33;98218.42;;;28.78;39.43